Twentynine Palms, CA (92277)

7:27 AM PDT on October 30, 2014 (GMT -0700)
MesoWest Twentynine Palms JTNP CA US SGXWFO | Change Station
CLOSE
Current Station
Personal Weather Station
Location: Twentynine Palms, CA
Elevation: 1975 ft
Nearby Weather Stations

Elev 1975 ft 34.13 °N, 116.04 °W | Updated 32 minutes ago

Clear
Clear
53 °F
Feels Like 53 °F
N
0
Wind Variable Wind from North
Gusts 0.0 mph

Today
High -- | Low -- °F
--% Chance of Precip.
Yesterday
High -- | Low -- °F
Precip. -- in
7:02 AM 5:52 PM
Waxing Crescent, 44% visible
Pressure 30.05 in
Visibility 8.0 miles
Clouds Clear
Dew Point 27 °F
Humidity 37%
Rainfall -999.00 in
Snow Depth Not available.
UV 0 out of 12
Pollen 3.50 out of 12
Air Quality Not available.
Flu Activity Not available.
METAR KNXP 301356Z AUTO 29006KT 8SM CLR 11/M03 A3013 RMK AO2 SLP176 T01111033

More Conditions Fewer Conditions

Pressure 30.05 in
Visibility 8.0 miles
Clouds Clear
Dew Point 27 °F
Humidity 37%
Rainfall -999.00 in
Snow Depth Not available.
UV 0 out of 12
Pollen 3.50 out of 12
Air Quality Not available.
Flu Activity Not available.
METAR KNXP 301356Z AUTO 29006KT 8SM CLR 11/M03 A3013 RMK AO2 SLP176 T01111033

More Conditions Fewer Conditions

10-Day Weather Forecast

Almanac

Astronomy

Oct. 30, 2014 Rise Set
Actual Time
Civil Twilight
Nautical Twilight
Astronomical Twilight
Moon
Length of Visible Light
Length of Day
Tomorrow will be .
, % of the Moon is Illuminated

Today's Extremes

State Highs State Lows

Community

WunderPhotos

Upload Photos

1,766,371 photos uploaded!

WunderBlogs® & News

Nearby

Air Quality

  Air Quality AQ Index Pollutant
Not available.

Snow Depth

Station Depth Elevation

Earthquake Activity

City Distance Mag. Time & Date
Minimum magnitude displayed is 2.5.

Coastal Water Temperatures

Place Temperature

Nearby Weather Stations